Time;durP1;ratioP1;P1;durP2;ratioP2;P2;SDS_P1;SDS_P2;PMS_P1;PMS_P2;Temp;Humidity;BMP_temperature;BMP_pressure;BME280_temperature;BME280_humidity;BME280_pressure;Samples;Min_cycle;Max_cycle;Signal;HPM_P1;HPM_P2
2023/09/03 00:01:58;;;;;;;6.23;2.60;;;18.40;30.00;;;;;;5008092;28;20409;-76
2023/09/03 00:04:23;;;;;;;8.57;3.27;;;18.40;42.70;;;;;;5007869;28;20515;-76
2023/09/03 00:06:49;;;;;;;8.30;3.60;;;18.40;35.50;;;;;;4996402;28;20410;-76
2023/09/03 00:11:56;;;;;;;8.70;3.50;;;18.40;62.40;;;;;;5056371;22;20434;-75
2023/09/03 00:14:21;;;;;;;9.75;3.50;;;18.50;60.80;;;;;;5031966;28;20431;-75
2023/09/03 00:16:47;;;;;;;7.72;3.33;;;18.50;64.40;;;;;;5012909;28;20510;-75
2023/09/03 00:19:12;;;;;;;7.80;3.20;;;18.50;55.30;;;;;;5028991;28;20750;-75
2023/09/03 00:21:38;;;;;;;7.73;3.17;;;18.50;26.80;;;;;;5033234;28;20414;-75
2023/09/03 00:24:04;;;;;;;7.40;3.23;;;18.40;32.70;;;;;;5022094;28;20423;-75
2023/09/03 00:26:29;;;;;;;8.07;3.50;;;18.40;46.10;;;;;;5027742;28;20439;-75
2023/09/03 00:28:56;;;;;;;9.00;3.38;;;18.40;66.10;;;;;;5033010;28;20383;-75
2023/09/03 00:31:23;;;;;;;8.77;3.60;;;18.40;48.10;;;;;;5013964;28;20411;-75
2023/09/03 00:33:49;;;;;;;7.00;3.30;;;18.50;33.90;;;;;;5031596;28;20418;-75
2023/09/03 00:36:14;;;;;;;9.23;3.80;;;18.50;23.20;;;;;;5015044;28;20494;-75
2023/09/03 00:38:40;;;;;;;9.63;3.50;;;18.50;14.20;;;;;;5032364;28;20390;-75
2023/09/03 00:41:05;;;;;;;7.17;3.10;;;18.50;11.70;;;;;;5032520;28;20511;-75
2023/09/03 00:43:32;;;;;;;10.57;4.30;;;18.50;17.50;;;;;;5033256;28;20481;-75
2023/09/03 00:46:04;;;;;;;9.45;3.90;;;18.50;22.30;;;;;;5033560;28;20437;-75
2023/09/03 00:48:30;;;;;;;8.60;4.03;;;18.40;39.70;;;;;;5033378;28;20406;-75
2023/09/03 00:50:58;;;;;;;8.20;3.25;;;18.50;41.90;;;;;;5032812;28;20409;-75
2023/09/03 00:53:25;;;;;;;8.10;3.83;;;18.50;21.90;;;;;;5019790;28;20401;-75
2023/09/03 00:55:52;;;;;;;7.80;3.47;;;18.40;12.00;;;;;;5012674;28;20398;-75
2023/09/03 00:58:18;;;;;;;9.32;3.75;;;18.40;32.10;;;;;;5012800;28;20389;-75
2023/09/03 01:00:44;;;;;;;9.98;3.80;;;18.40;26.20;;;;;;5012809;28;20443;-75
2023/09/03 01:03:10;;;;;;;9.20;3.88;;;18.30;29.80;;;;;;5030828;28;20430;-75
2023/09/03 01:05:36;;;;;;;12.82;4.32;;;18.30;46.30;;;;;;5032463;28;20403;-76
2023/09/03 01:08:02;;;;;;;7.20;2.90;;;18.20;65.40;;;;;;5022197;28;20419;-75
2023/09/03 01:10:45;;;;;;;8.35;3.60;;;18.20;87.20;;;;;;5027725;28;20411;-75
2023/09/03 01:13:48;;;;;;;8.17;3.80;;;18.20;64.80;;;;;;5030951;28;20414;-75
2023/09/03 01:16:22;;;;;;;8.90;3.20;;;18.20;36.80;;;;;;5031267;28;21027;-75
2023/09/03 01:18:48;;;;;;;6.88;2.97;;;18.20;42.90;;;;;;5030672;28;20398;-75
2023/09/03 01:22:11;;;;;;;6.72;3.00;;;18.20;36.10;;;;;;5030117;28;20419;-75
2023/09/03 01:25:13;;;;;;;7.72;3.20;;;18.30;20.90;;;;;;4951403;29;20430;-75
2023/09/03 01:27:57;;;;;;;8.13;3.00;;;18.20;40.90;;;;;;4919733;29;20860;-75
2023/09/03 01:30:22;;;;;;;8.50;3.53;;;18.10;51.70;;;;;;5024958;28;20871;-75
2023/09/03 01:32:50;;;;;;;9.30;3.45;;;18.20;39.10;;;;;;5012198;28;20419;-75
2023/09/03 01:35:18;;;;;;;8.30;3.92;;;18.10;36.50;;;;;;5030927;28;20406;-75
2023/09/03 01:37:43;;;;;;;7.50;3.03;;;18.10;40.60;;;;;;5031655;28;20483;-75
2023/09/03 01:40:10;;;;;;;8.30;3.10;;;18.10;49.00;;;;;;5031919;28;20756;-75
2023/09/03 01:42:35;;;;;;;7.65;2.88;;;18.10;56.70;;;;;;5031459;28;20430;-75
2023/09/03 01:45:01;;;;;;;8.75;3.17;;;18.10;52.30;;;;;;5032024;28;20455;-75
2023/09/03 01:47:42;;;;;;;7.00;3.05;;;18.10;43.40;;;;;;5031179;28;20411;-75
2023/09/03 01:50:29;;;;;;;7.93;3.38;;;18.20;21.50;;;;;;5031947;28;20426;-75
2023/09/03 01:53:20;;;;;;;10.00;3.00;;;18.20;20.30;;;;;;5031273;28;20403;-75
2023/09/03 01:55:54;;;;;;;8.65;3.45;;;18.20;16.80;;;;;;5031247;28;20403;-75
2023/09/03 01:58:22;;;;;;;9.32;3.20;;;18.10;18.10;;;;;;5031348;28;20423;-75
2023/09/03 02:00:48;;;;;;;7.00;2.85;;;18.10;20.90;;;;;;5030987;28;20419;-75
2023/09/03 02:03:14;;;;;;;7.15;2.90;;;18.00;48.90;;;;;;5013855;28;20459;-75
2023/09/03 02:05:40;;;;;;;7.95;3.38;;;17.90;56.80;;;;;;5031486;28;20490;-75
2023/09/03 02:08:05;;;;;;;7.97;3.03;;;17.90;61.60;;;;;;5029812;28;20421;-75
2023/09/03 02:10:31;;;;;;;8.03;3.30;;;17.80;60.80;;;;;;5030853;28;20391;-75
2023/09/03 02:12:56;;;;;;;8.50;3.10;;;17.80;84.70;;;;;;5030620;28;20423;-75
2023/09/03 02:15:22;;;;;;;7.30;2.93;;;17.80;82.90;;;;;;5013828;28;20411;-75
2023/09/03 02:17:47;;;;;;;8.60;3.60;;;17.80;68.10;;;;;;5029172;28;20478;-75
2023/09/03 02:20:13;;;;;;;8.32;3.40;;;17.80;41.60;;;;;;5030478;28;20418;-75
2023/09/03 02:22:38;;;;;;;7.73;3.40;;;17.80;46.30;;;;;;5015764;28;20393;-75
2023/09/03 02:25:04;;;;;;;8.20;3.70;;;17.70;82.00;;;;;;5012142;28;20754;-75
2023/09/03 02:27:30;;;;;;;9.32;4.38;;;17.60;98.60;;;;;;5029181;28;20482;-75
2023/09/03 02:29:55;;;;;;;7.80;3.37;;;17.60;99.90;;;;;;5028287;28;20739;-75
2023/09/03 02:32:21;;;;;;;8.30;3.30;;;17.60;99.90;;;;;;5029738;28;20399;-75
2023/09/03 02:34:46;;;;;;;8.03;3.40;;;17.60;99.90;;;;;;5028925;28;20406;-76
2023/09/03 02:37:12;;;;;;;11.77;4.17;;;17.50;99.90;;;;;;5030122;28;20387;-75
2023/09/03 02:39:38;;;;;;;8.90;4.22;;;17.50;99.90;;;;;;5030461;28;20895;-76
2023/09/03 02:42:03;;;;;;;12.23;4.17;;;17.60;99.90;;;;;;5014149;28;20401;-76
2023/09/03 02:44:29;;;;;;;10.00;3.28;;;17.60;99.90;;;;;;5010619;28;20416;-76
2023/09/03 02:46:54;;;;;;;13.15;4.10;;;17.50;99.90;;;;;;5010521;28;20922;-76
2023/09/03 02:49:21;;;;;;;9.07;3.85;;;17.40;99.90;;;;;;5009050;28;20748;-76
2023/09/03 02:51:47;;;;;;;7.45;3.50;;;17.40;99.90;;;;;;5013046;28;20439;-75
2023/09/03 02:54:13;;;;;;;10.68;4.32;;;17.40;99.90;;;;;;5012157;28;20415;-76
2023/09/03 02:56:38;;;;;;;9.67;3.33;;;17.30;99.90;;;;;;5012963;28;20758;-75
2023/09/03 02:59:04;;;;;;;8.07;3.93;;;17.40;99.90;;;;;;5023096;28;20434;-75
2023/09/03 03:01:29;;;;;;;8.33;3.50;;;17.30;99.90;;;;;;5051946;28;20391;-75
2023/09/03 03:03:55;;;;;;;8.03;3.63;;;17.30;99.90;;;;;;5050082;28;20514;-75
2023/09/03 03:06:20;;;;;;;8.13;3.63;;;17.30;99.90;;;;;;5050542;28;20441;-75
2023/09/03 03:08:46;;;;;;;10.25;4.05;;;17.20;99.90;;;;;;5050936;28;20421;-75
2023/09/03 03:11:16;;;;;;;8.00;3.63;;;17.20;99.90;;;;;;5038702;28;20405;-74
2023/09/03 03:13:44;;;;;;;8.38;3.80;;;17.10;99.90;;;;;;5029646;28;20423;-75
2023/09/03 03:16:11;;;;;;;8.45;3.90;;;17.10;99.90;;;;;;5025571;28;20488;-75
2023/09/03 03:18:39;;;;;;;8.70;4.15;;;17.10;99.90;;;;;;5015921;28;20566;-75
2023/09/03 03:21:06;;;;;;;8.43;3.70;;;17.10;99.90;;;;;;5028542;28;20406;-75
2023/09/03 03:23:33;;;;;;;9.50;3.63;;;17.10;99.90;;;;;;5029029;28;20454;-75
2023/09/03 03:25:59;;;;;;;7.50;3.20;;;17.10;99.90;;;;;;5029872;28;20505;-75
2023/09/03 03:28:25;;;;;;;11.40;4.35;;;17.10;99.90;;;;;;5011317;28;20762;-75
2023/09/03 03:30:50;;;;;;;8.80;3.50;;;17.10;99.90;;;;;;5027466;28;21067;-75
2023/09/03 03:33:16;;;;;;;8.60;3.80;;;17.20;99.90;;;;;;5013067;28;20405;-74
2023/09/03 03:35:42;;;;;;;8.95;3.30;;;17.20;99.90;;;;;;5021730;28;20401;-76
2023/09/03 03:38:07;;;;;;;8.73;3.67;;;17.20;99.90;;;;;;5007584;28;20587;-76
2023/09/03 03:40:33;;;;;;;9.10;3.77;;;17.30;99.90;;;;;;5009956;28;20938;-77
2023/09/03 03:42:58;;;;;;;6.90;3.10;;;17.20;99.90;;;;;;5010430;28;20400;-77
2023/09/03 03:45:24;;;;;;;7.87;3.87;;;17.20;99.90;;;;;;5028715;28;20407;-75
2023/09/03 03:47:49;;;;;;;7.63;3.53;;;17.30;99.90;;;;;;5028579;28;20402;-75
2023/09/03 03:50:15;;;;;;;9.68;3.47;;;17.40;99.90;;;;;;5025436;28;20533;-75
2023/09/03 03:52:42;;;;;;;8.27;3.60;;;17.40;99.90;;;;;;5011086;28;20420;-75
2023/09/03 03:55:07;;;;;;;8.10;3.25;;;17.40;96.30;;;;;;5014780;28;20397;-75
2023/09/03 03:57:33;;;;;;;8.40;4.05;;;17.40;91.10;;;;;;5010343;28;20385;-75
2023/09/03 03:59:58;;;;;;;8.57;4.00;;;17.40;99.90;;;;;;5010081;28;20414;-75
2023/09/03 04:02:24;;;;;;;9.60;3.37;;;17.30;84.00;;;;;;5028971;28;20448;-75
2023/09/03 04:04:53;;;;;;;9.67;3.50;;;17.30;99.90;;;;;;5029047;28;20926;-76
2023/09/03 04:07:19;;;;;;;7.20;3.38;;;17.30;87.60;;;;;;5011749;28;20446;-76
2023/09/03 04:09:44;;;;;;;7.37;2.70;;;17.30;64.70;;;;;;5012412;28;20889;-76
2023/09/03 04:12:10;;;;;;;7.43;3.30;;;17.20;99.90;;;;;;5009701;28;20413;-76
2023/09/03 04:14:37;;;;;;;7.40;2.75;;;17.20;99.90;;;;;;5009698;28;20459;-77
2023/09/03 04:17:03;;;;;;;7.93;3.60;;;17.20;99.90;;;;;;5014198;28;20376;-76
2023/09/03 04:19:29;;;;;;;7.80;3.50;;;17.20;99.90;;;;;;5011738;28;20395;-77
2023/09/03 04:21:54;;;;;;;7.82;3.35;;;17.10;99.90;;;;;;5029544;28;20441;-76
2023/09/03 04:24:20;;;;;;;12.90;3.40;;;17.20;99.90;;;;;;5026754;28;20418;-75
2023/09/03 04:26:45;;;;;;;9.80;3.97;;;17.20;99.90;;;;;;5009633;28;20396;-75
2023/09/03 04:29:11;;;;;;;7.30;2.93;;;17.10;99.90;;;;;;5013486;28;20477;-75
2023/09/03 04:31:36;;;;;;;7.63;3.33;;;17.10;99.90;;;;;;5022736;28;20430;-75
2023/09/03 04:34:02;;;;;;;8.27;3.38;;;17.10;99.90;;;;;;5027928;28;20864;-75
2023/09/03 04:36:28;;;;;;;9.30;3.30;;;17.10;99.90;;;;;;5029695;28;20917;-75
2023/09/03 04:38:55;;;;;;;8.65;3.75;;;17.10;99.90;;;;;;5027381;28;20403;-75
2023/09/03 04:41:20;;;;;;;7.05;3.17;;;17.00;99.90;;;;;;5029018;28;20399;-76
2023/09/03 04:43:46;;;;;;;9.03;3.20;;;17.10;99.90;;;;;;5028905;28;20426;-77
2023/09/03 04:46:12;;;;;;;12.38;3.20;;;17.10;99.90;;;;;;5029258;28;20410;-76
2023/09/03 04:48:38;;;;;;;8.67;3.43;;;17.10;99.90;;;;;;5028936;28;20387;-76
2023/09/03 04:51:04;;;;;;;8.17;3.63;;;17.20;99.90;;;;;;5029533;28;20395;-76
2023/09/03 04:53:33;;;;;;;10.70;3.47;;;17.20;99.90;;;;;;5029857;28;20410;-76
2023/09/03 04:55:58;;;;;;;7.88;3.13;;;17.30;99.90;;;;;;5029996;28;20898;-76
2023/09/03 04:58:24;;;;;;;7.60;3.20;;;17.30;99.90;;;;;;5014980;28;20401;-77
2023/09/03 05:00:50;;;;;;;7.20;2.90;;;17.40;99.90;;;;;;5032334;28;20387;-76
2023/09/03 05:03:15;;;;;;;8.77;3.50;;;17.40;99.90;;;;;;5032163;28;20395;-76
2023/09/03 05:05:42;;;;;;;7.75;3.00;;;17.40;99.90;;;;;;5031406;28;20466;-76
2023/09/03 05:08:11;;;;;;;7.77;3.17;;;17.40;99.90;;;;;;5012022;28;20381;-75
2023/09/03 05:10:38;;;;;;;7.40;3.20;;;17.50;91.00;;;;;;5018332;28;20421;-75
2023/09/03 05:13:06;;;;;;;9.20;2.90;;;17.60;99.90;;;;;;5031189;28;20411;-75
2023/09/03 05:15:32;;;;;;;8.10;3.20;;;17.80;99.90;;;;;;5031451;28;20395;-76
2023/09/03 05:17:58;;;;;;;10.68;3.10;;;18.00;64.10;;;;;;5014815;28;20764;-75
2023/09/03 05:20:23;;;;;;;7.60;3.20;;;17.90;29.50;;;;;;5028877;28;20402;-75
2023/09/03 05:22:49;;;;;;;8.13;3.50;;;17.90;33.50;;;;;;5029776;28;20403;-75
2023/09/03 05:25:14;;;;;;;8.27;3.65;;;18.00;24.40;;;;;;5011983;28;20424;-75
2023/09/03 05:27:40;;;;;;;8.07;3.25;;;18.10;45.90;;;;;;5015993;28;20407;-75
2023/09/03 05:30:06;;;;;;;9.07;3.00;;;18.20;33.00;;;;;;4996093;28;20471;-75
2023/09/03 05:32:31;;;;;;;9.30;3.10;;;18.30;14.10;;;;;;5031823;28;20745;-75
2023/09/03 05:34:57;;;;;;;9.35;3.20;;;18.40;1.00;;;;;;5021112;28;20410;-75
2023/09/03 05:37:22;;;;;;;8.55;3.60;;;18.30;1.00;;;;;;5030741;28;20407;-75
2023/09/03 05:39:50;;;;;;;6.63;2.75;;;18.30;1.00;;;;;;5031179;28;20480;-75
2023/09/03 05:42:16;;;;;;;6.15;2.60;;;18.40;1.00;;;;;;5028336;28;20457;-75
2023/09/03 05:44:41;;;;;;;9.47;3.17;;;18.40;1.00;;;;;;5031417;28;20418;-75
2023/09/03 05:47:07;;;;;;;7.75;2.95;;;18.40;1.00;;;;;;5030445;28;20449;-75
2023/09/03 05:49:32;;;;;;;5.85;2.65;;;18.60;1.00;;;;;;5015005;28;20411;-75
2023/09/03 05:51:58;;;;;;;8.57;3.38;;;18.80;1.00;;;;;;5032469;28;20460;-76
2023/09/03 05:54:23;;;;;;;8.50;2.73;;;19.00;1.00;;;;;;5031059;28;20403;-77
2023/09/03 05:56:49;;;;;;;8.13;2.80;;;19.00;1.00;;;;;;5030911;28;20961;-75
2023/09/03 05:59:15;;;;;;;7.50;3.37;;;19.10;1.00;;;;;;5031349;28;20429;-75
2023/09/03 06:01:41;;;;;;;8.55;3.30;;;19.00;1.00;;;;;;5027692;28;20404;-75
2023/09/03 06:04:09;;;;;;;8.10;3.40;;;19.00;1.00;;;;;;5016611;28;20863;-75
2023/09/03 06:06:39;;;;;;;7.90;3.20;;;19.00;1.00;;;;;;5032628;28;20524;-75
2023/09/03 06:09:06;;;;;;;8.38;3.22;;;19.20;1.00;;;;;;5035352;28;20391;-75
2023/09/03 06:11:32;;;;;;;7.35;3.00;;;19.60;1.00;;;;;;5029456;28;20403;-75
2023/09/03 06:14:00;;;;;;;10.30;3.42;;;19.90;1.00;;;;;;5029799;28;21201;-75
2023/09/03 06:16:26;;;;;;;8.00;3.60;;;20.40;1.00;;;;;;5030248;28;20624;-75
2023/09/03 06:18:52;;;;;;;8.30;3.00;;;20.80;1.00;;;;;;5031601;28;20391;-76
2023/09/03 06:21:17;;;;;;;6.22;2.70;;;21.00;99.90;;;;;;5030598;28;20391;-75
2023/09/03 06:23:43;;;;;;;6.60;2.97;;;21.20;99.90;;;;;;5031150;28;20407;-75
2023/09/03 06:26:08;;;;;;;9.90;3.00;;;21.20;99.90;;;;;;5012504;28;20855;-75
2023/09/03 06:28:34;;;;;;;11.03;2.83;;;21.30;3.60;;;;;;5027700;28;20949;-75
2023/09/03 06:31:01;;;;;;;8.37;3.13;;;21.30;1.00;;;;;;5031232;28;20461;-75
2023/09/03 06:33:26;;;;;;;7.97;3.22;;;21.30;1.00;;;;;;5030960;28;20465;-75
2023/09/03 06:35:52;;;;;;;7.50;2.80;;;21.20;1.00;;;;;;5025571;28;20381;-75
2023/09/03 06:38:17;;;;;;;9.98;3.80;;;21.30;1.00;;;;;;5011591;28;20895;-75
2023/09/03 06:40:44;;;;;;;8.82;3.88;;;21.20;1.00;;;;;;5032076;28;20754;-75
2023/09/03 06:43:09;;;;;;;8.10;3.55;;;21.30;1.00;;;;;;5030705;28;20791;-75
2023/09/03 06:45:35;;;;;;;8.57;3.70;;;21.40;99.90;;;;;;5030225;28;20466;-75
2023/09/03 06:48:00;;;;;;;7.50;3.40;;;21.50;1.00;;;;;;5031195;28;20730;-75
2023/09/03 06:50:26;;;;;;;9.70;3.53;;;21.60;1.00;;;;;;5024298;28;20894;-75
2023/09/03 06:52:51;;;;;;;7.83;3.10;;;21.80;99.90;;;;;;5011147;28;20891;-75
2023/09/03 06:55:17;;;;;;;8.67;3.23;;;22.00;1.00;;;;;;5010598;28;20476;-75
2023/09/03 06:57:42;;;;;;;11.50;4.13;;;22.10;1.00;;;;;;5010832;28;20856;-75
2023/09/03 07:00:10;;;;;;;6.70;2.88;;;22.40;1.00;;;;;;4993240;28;20462;-75
2023/09/03 07:02:35;;;;;;;9.20;2.87;;;22.20;1.00;;;;;;5010992;28;20492;-76
2023/09/03 07:05:01;;;;;;;10.60;4.07;;;22.20;94.10;;;;;;5030632;28;20490;-75
2023/09/03 07:07:27;;;;;;;8.40;3.70;;;22.30;99.90;;;;;;5030250;28;20869;-75
2023/09/03 07:09:53;;;;;;;8.40;3.50;;;22.50;99.90;;;;;;5030078;28;20391;-75
2023/09/03 07:12:19;;;;;;;7.10;3.42;;;22.50;99.90;;;;;;5030083;28;20506;-75
2023/09/03 07:14:45;;;;;;;9.95;4.20;;;22.40;1.00;;;;;;5029369;28;20887;-75
2023/09/03 07:17:11;;;;;;;9.02;3.58;;;22.40;99.90;;;;;;5029194;28;20395;-76
2023/09/03 07:19:37;;;;;;;9.00;3.90;;;22.60;1.00;;;;;;5027853;28;20473;-75
2023/09/03 07:22:02;;;;;;;10.27;4.10;;;22.70;99.90;;;;;;5010210;28;20866;-75
2023/09/03 07:24:28;;;;;;;9.10;4.10;;;22.70;9.00;;;;;;5030297;28;20445;-75
2023/09/03 07:26:54;;;;;;;9.43;4.13;;;22.80;22.60;;;;;;5029598;28;20502;-75
2023/09/03 07:29:19;;;;;;;10.43;4.35;;;22.90;1.00;;;;;;5029494;28;20494;-76
2023/09/03 07:31:45;;;;;;;7.80;3.60;;;23.30;1.00;;;;;;5008043;28;21224;-76
2023/09/03 07:34:11;;;;;;;9.70;4.00;;;23.30;1.00;;;;;;5021721;28;20460;-76
2023/09/03 07:36:37;;;;;;;9.35;4.18;;;23.60;1.00;;;;;;5019410;28;20445;-75
2023/09/03 07:39:04;;;;;;;10.88;3.58;;;23.90;1.00;;;;;;5009594;28;20804;-76
2023/09/03 07:41:31;;;;;;;10.85;4.60;;;24.10;99.90;;;;;;5010398;28;20420;-76
2023/09/03 07:44:05;;;;;;;10.57;4.80;;;24.30;99.90;;;;;;5015697;28;20417;-75
2023/09/03 07:46:32;;;;;;;9.20;3.63;;;24.60;99.30;;;;;;5013859;28;20419;-75
2023/09/03 07:48:57;;;;;;;9.10;3.88;;;25.10;1.00;;;;;;5019424;28;20425;-76
2023/09/03 07:51:23;;;;;;;9.93;4.93;;;25.90;99.90;;;;;;5017496;28;20974;-78
2023/09/03 07:53:49;;;;;;;7.90;3.80;;;26.80;90.30;;;;;;5013397;28;20905;-78
2023/09/03 07:56:15;;;;;;;9.30;3.80;;;26.80;1.00;;;;;;5027339;28;20410;-78
2023/09/03 07:58:42;;;;;;;9.30;3.83;;;26.80;1.00;;;;;;5009606;28;20775;-78
2023/09/03 08:01:15;;;;;;;9.80;3.53;;;26.60;1.00;;;;;;5000045;28;20403;-78
2023/09/03 08:03:42;;;;;;;10.90;4.10;;;26.40;1.00;;;;;;5015824;28;20433;-78
2023/09/03 08:06:08;;;;;;;9.20;3.70;;;27.10;1.00;;;;;;5028783;28;20410;-75
2023/09/03 08:08:34;;;;;;;8.80;4.03;;;28.20;1.00;;;;;;5021692;28;20887;-75
2023/09/03 08:11:00;;;;;;;8.60;3.70;;;29.50;1.00;;;;;;5020374;28;20609;-75
2023/09/03 08:13:26;;;;;;;8.10;3.50;;;29.80;1.00;;;;;;5009975;28;20464;-75
2023/09/03 08:15:51;;;;;;;8.40;3.50;;;29.10;1.00;;;;;;5009759;28;20926;-75
2023/09/03 08:18:18;;;;;;;9.40;3.67;;;28.10;1.00;;;;;;5006052;28;20838;-75
2023/09/03 08:20:43;;;;;;;8.25;4.13;;;28.10;1.00;;;;;;5029159;28;20395;-75
2023/09/03 08:23:13;;;;;;;8.55;3.30;;;28.40;1.00;;;;;;5025588;28;20488;-78
2023/09/03 08:25:40;;;;;;;7.93;3.30;;;27.90;1.00;;;;;;4991694;28;20463;-78
2023/09/03 08:28:07;;;;;;;8.07;3.05;;;27.90;1.00;;;;;;5028827;28;20399;-75
2023/09/03 08:30:32;;;;;;;8.20;3.67;;;29.00;1.00;;;;;;5028852;28;20403;-75
2023/09/03 08:32:59;;;;;;;8.15;3.40;;;30.20;1.00;;;;;;5031285;28;20414;-75
2023/09/03 08:35:25;;;;;;;8.93;3.78;;;31.90;99.90;;;;;;5022174;28;20426;-75
2023/09/03 08:37:51;;;;;;;8.13;3.40;;;32.00;1.00;;;;;;5018568;28;20436;-75
2023/09/03 08:40:18;;;;;;;7.30;3.20;;;33.00;99.90;;;;;;5030084;28;20399;-76
2023/09/03 08:42:46;;;;;;;10.20;4.15;;;33.30;99.90;;;;;;5033188;28;20390;-76
2023/09/03 08:45:12;;;;;;;7.75;3.20;;;33.90;99.90;;;;;;5033134;28;20445;-76
2023/09/03 08:47:40;;;;;;;8.27;3.50;;;33.90;99.90;;;;;;5032658;28;20661;-76
2023/09/03 08:50:09;;;;;;;7.95;3.40;;;33.60;99.90;;;;;;5032845;28;20821;-76
2023/09/03 08:52:40;;;;;;;9.35;3.40;;;33.80;99.90;;;;;;5015148;28;20391;-76
2023/09/03 08:55:07;;;;;;;9.80;3.80;;;33.70;99.90;;;;;;5032353;28;20391;-76
2023/09/03 08:57:41;;;;;;;8.10;3.80;;;33.20;99.90;;;;;;5032662;28;20396;-76
2023/09/03 09:00:08;;;;;;;8.02;3.15;;;32.70;99.90;;;;;;5032290;28;20399;-75
2023/09/03 09:02:34;;;;;;;7.85;3.28;;;33.00;99.90;;;;;;5032631;28;20470;-76
2023/09/03 09:05:09;;;;;;;8.65;3.10;;;34.30;99.90;;;;;;5031690;28;20426;-76
2023/09/03 09:07:35;;;;;;;7.68;3.20;;;35.00;99.90;;;;;;5031947;28;20390;-76
2023/09/03 09:10:10;;;;;;;7.60;3.07;;;35.00;99.90;;;;;;5032043;28;20742;-75
2023/09/03 09:13:02;;;;;;;7.60;3.10;;;34.80;99.90;;;;;;5029428;28;20502;-76
2023/09/03 09:15:28;;;;;;;7.65;2.40;;;34.50;99.90;;;;;;5032123;28;20415;-76
2023/09/03 09:17:53;;;;;;;6.80;2.60;;;34.50;99.90;;;;;;5031594;28;20391;-76
2023/09/03 09:20:19;;;;;;;7.00;2.50;;;34.60;99.90;;;;;;5031612;28;20383;-76
2023/09/03 09:22:49;;;;;;;9.82;3.00;;;34.30;99.90;;;;;;5031638;28;20471;-76
2023/09/03 09:25:24;;;;;;;6.13;1.90;;;33.60;99.90;;;;;;5031308;28;20502;-76
2023/09/03 09:27:53;;;;;;;5.80;1.60;;;32.50;99.90;;;;;;5032016;28;20785;-76
2023/09/03 09:30:20;;;;;;;6.20;1.70;;;32.70;99.90;;;;;;5014424;28;20408;-76
2023/09/03 09:32:46;;;;;;;6.90;1.92;;;32.90;99.90;;;;;;4994238;28;20397;-76
2023/09/03 09:35:23;;;;;;;6.00;2.00;;;33.10;99.90;;;;;;5025655;28;20385;-76
2023/09/03 09:37:48;;;;;;;5.80;1.60;;;33.70;99.90;;;;;;5029080;28;20403;-76
2023/09/03 09:40:25;;;;;;;6.13;1.60;;;33.60;99.90;;;;;;5025832;28;20492;-76
2023/09/03 09:43:00;;;;;;;6.73;1.80;;;34.00;99.90;;;;;;5025743;28;20434;-76
2023/09/03 09:45:26;;;;;;;5.82;1.50;;;33.60;99.90;;;;;;5011279;28;20515;-76
2023/09/03 09:48:08;;;;;;;6.20;1.60;;;34.40;99.90;;;;;;5011924;28;20492;-76
2023/09/03 09:51:12;;;;;;;5.60;1.58;;;34.70;99.90;;;;;;5012038;28;20415;-76
2023/09/03 09:53:37;;;;;;;6.03;1.90;;;34.90;99.90;;;;;;5012298;28;20517;-77
2023/09/03 09:56:09;;;;;;;5.40;1.20;;;34.70;99.90;;;;;;5012222;28;20413;-76
2023/09/03 09:58:40;;;;;;;5.68;1.50;;;34.90;99.90;;;;;;5014034;28;20406;-76
2023/09/03 10:01:07;;;;;;;6.10;2.05;;;35.20;99.90;;;;;;5032122;28;20406;-76
2023/09/03 10:03:44;;;;;;;5.80;1.70;;;34.70;99.90;;;;;;5032019;28;20425;-76
2023/09/03 10:06:11;;;;;;;6.70;1.30;;;34.90;99.90;;;;;;5031274;28;20398;-76
2023/09/03 10:08:38;;;;;;;5.03;1.20;;;35.40;99.90;;;;;;5031415;28;20731;-77
2023/09/03 10:11:03;;;;;;;5.55;1.00;;;34.50;99.90;;;;;;5031423;28;20901;-76
2023/09/03 10:13:31;;;;;;;6.30;1.10;;;34.00;99.90;;;;;;5032861;28;20510;-76
2023/09/03 10:16:03;;;;;;;6.40;1.38;;;34.40;99.90;;;;;;5030738;28;20426;-76
2023/09/03 10:18:47;;;;;;;6.25;1.70;;;34.90;99.90;;;;;;5032146;28;20395;-76
2023/09/03 10:21:19;;;;;;;5.30;0.97;;;34.60;99.90;;;;;;5013384;28;20445;-76
2023/09/03 10:23:50;;;;;;;6.40;1.10;;;34.60;99.90;;;;;;5030759;28;20493;-76
2023/09/03 10:26:32;;;;;;;5.55;1.23;;;34.10;99.90;;;;;;5031484;28;20395;-76
2023/09/03 10:29:03;;;;;;;5.30;1.13;;;34.00;99.90;;;;;;5031500;28;20391;-77
2023/09/03 10:31:30;;;;;;;5.30;1.23;;;34.40;99.90;;;;;;5031707;28;20391;-76
2023/09/03 10:33:56;;;;;;;5.97;1.23;;;34.40;99.90;;;;;;5030740;28;20379;-76
2023/09/03 10:36:21;;;;;;;5.60;1.10;;;33.30;99.90;;;;;;5029414;28;20471;-76
2023/09/03 10:38:47;;;;;;;5.57;0.93;;;33.20;99.90;;;;;;4999868;28;20483;-76
2023/09/03 10:41:25;;;;;;;4.70;0.70;;;33.00;99.90;;;;;;5019273;28;20388;-76
2023/09/03 10:43:53;;;;;;;5.20;1.00;;;33.20;99.90;;;;;;5031785;28;20411;-76
2023/09/03 10:46:19;;;;;;;5.80;1.50;;;33.10;99.90;;;;;;5013044;28;20490;-77
2023/09/03 10:48:55;;;;;;;5.05;1.10;;;33.10;99.90;;;;;;5027972;28;20422;-76
2023/09/03 10:51:32;;;;;;;5.20;0.90;;;32.50;99.90;;;;;;5012421;28;20924;-77
2023/09/03 10:54:20;;;;;;;5.70;1.30;;;32.50;99.90;;;;;;5013039;28;20380;-77
2023/09/03 10:57:04;;;;;;;5.30;1.10;;;31.80;99.90;;;;;;5033155;28;20379;-76
2023/09/03 11:00:07;;;;;;;5.50;1.20;;;31.30;99.90;;;;;;5031206;28;20920;-77
2023/09/03 11:02:34;;;;;;;5.43;0.93;;;31.40;99.90;;;;;;5028117;28;20467;-77
2023/09/03 11:05:23;;;;;;;6.03;1.40;;;31.20;99.90;;;;;;5012556;28;20817;-77
2023/09/03 11:08:09;;;;;;;5.60;1.27;;;31.00;99.90;;;;;;5012045;28;20861;-76
2023/09/03 11:10:41;;;;;;;5.50;1.33;;;31.30;99.90;;;;;;5029888;28;20878;-77
2023/09/03 11:13:10;;;;;;;5.40;1.30;;;31.00;99.90;;;;;;5030338;28;20473;-76
2023/09/03 11:15:36;;;;;;;5.40;1.23;;;31.20;99.90;;;;;;4994439;28;20479;-76
2023/09/03 11:18:01;;;;;;;5.60;1.70;;;30.90;99.90;;;;;;5009368;28;20529;-76
2023/09/03 11:20:30;;;;;;;6.10;1.60;;;30.80;99.90;;;;;;5029802;28;20391;-76
2023/09/03 11:22:57;;;;;;;6.40;1.83;;;31.00;99.90;;;;;;5029334;28;20379;-76
2023/09/03 11:25:36;;;;;;;6.03;1.85;;;30.90;99.90;;;;;;5029681;28;20873;-76
2023/09/03 11:28:03;;;;;;;6.00;1.50;;;31.00;99.90;;;;;;5029790;28;20790;-76
2023/09/03 11:30:29;;;;;;;6.63;2.40;;;31.00;99.90;;;;;;5030014;28;20846;-76
2023/09/03 11:32:54;;;;;;;6.68;1.95;;;30.90;99.90;;;;;;5029931;28;20737;-76
2023/09/03 11:35:21;;;;;;;6.82;1.70;;;30.80;99.90;;;;;;5029823;28;20466;-77
2023/09/03 11:38:01;;;;;;;6.57;1.45;;;30.80;99.90;;;;;;5029793;28;20666;-78
2023/09/03 11:40:27;;;;;;;5.53;1.52;;;30.70;99.90;;;;;;5026255;28;20403;-77
2023/09/03 11:42:52;;;;;;;6.72;1.55;;;30.60;99.90;;;;;;5012405;28;20418;-78
2023/09/03 11:45:18;;;;;;;5.72;1.70;;;29.80;99.90;;;;;;5012940;28;20418;-78
2023/09/03 11:47:51;;;;;;;8.07;1.48;;;29.50;99.90;;;;;;5031573;28;20430;-79
2023/09/03 11:50:17;;;;;;;5.80;1.30;;;29.40;99.90;;;;;;5032515;28;20398;-77
2023/09/03 11:52:58;;;;;;;6.30;1.30;;;29.60;99.90;;;;;;5031994;28;20383;-76
2023/09/03 11:55:38;;;;;;;5.03;1.15;;;30.10;99.90;;;;;;5024360;28;20393;-76
2023/09/03 11:58:08;;;;;;;5.20;1.30;;;30.10;99.90;;;;;;5019037;28;20524;-76
2023/09/03 12:00:35;;;;;;;5.70;1.48;;;30.00;99.90;;;;;;5011267;28;20391;-76
2023/09/03 12:03:03;;;;;;;5.70;1.50;;;29.90;99.90;;;;;;5029610;28;20384;-76
2023/09/03 12:05:29;;;;;;;5.10;1.30;;;29.80;99.90;;;;;;5012242;28;20433;-76
2023/09/03 12:08:01;;;;;;;5.55;1.20;;;29.60;99.90;;;;;;5029571;28;20411;-76
2023/09/03 12:10:27;;;;;;;5.80;1.35;;;29.60;99.90;;;;;;5030319;28;20395;-76
2023/09/03 12:12:53;;;;;;;5.57;1.30;;;29.50;99.90;;;;;;5013962;28;20471;-76
2023/09/03 12:15:20;;;;;;;6.40;1.60;;;30.00;99.90;;;;;;5036220;28;20401;-76
2023/09/03 12:17:45;;;;;;;6.38;1.30;;;30.50;99.90;;;;;;5035062;28;21031;-76
2023/09/03 12:20:30;;;;;;;6.50;1.43;;;30.70;99.90;;;;;;5033556;28;20474;-76
2023/09/03 12:23:14;;;;;;;5.80;1.70;;;30.60;99.90;;;;;;5027642;28;20391;-76
2023/09/03 12:25:41;;;;;;;5.65;1.40;;;30.80;99.90;;;;;;5040651;28;20766;-76
2023/09/03 12:28:07;;;;;;;5.40;1.30;;;30.80;99.90;;;;;;5036880;28;20403;-76
2023/09/03 12:30:59;;;;;;;6.35;1.45;;;30.70;99.90;;;;;;5033600;28;20901;-76
2023/09/03 12:33:26;;;;;;;6.05;1.90;;;30.40;99.90;;;;;;5017188;28;20391;-76
2023/09/03 12:36:09;;;;;;;5.75;1.60;;;29.70;99.90;;;;;;5016436;28;20433;-76
2023/09/03 12:39:07;;;;;;;6.10;1.60;;;29.60;99.90;;;;;;5033604;28;20494;-76
2023/09/03 12:41:34;;;;;;;7.20;1.58;;;30.00;99.90;;;;;;4977795;28;20452;-75
2023/09/03 12:44:08;;;;;;;5.40;1.40;;;30.20;99.90;;;;;;5032922;28;20453;-75
2023/09/03 12:46:37;;;;;;;5.30;1.10;;;30.20;99.90;;;;;;5032201;28;20395;-75
2023/09/03 12:49:03;;;;;;;5.40;1.30;;;30.40;99.90;;;;;;5032638;28;20391;-75
2023/09/03 12:51:29;;;;;;;5.97;1.50;;;29.80;99.90;;;;;;5032392;28;20402;-75
2023/09/03 12:53:55;;;;;;;5.30;1.33;;;29.70;99.90;;;;;;5031886;28;20446;-77
2023/09/03 12:56:20;;;;;;;5.20;1.10;;;29.50;99.90;;;;;;5015389;28;20425;-76
2023/09/03 12:58:47;;;;;;;5.10;1.40;;;29.50;99.90;;;;;;5032513;28;20451;-76